sensor_id;sensor_type;location;lat;lon;timestamp;P1;durP1;ratioP1;P2;durP2;ratioP2
7657;SDS011;8462;53.156;8.220;2024-03-02T00:01:37;12.30;;;8.73;;
7657;SDS011;8462;53.156;8.220;2024-03-02T00:04:08;14.03;;;10.40;;
7657;SDS011;8462;53.156;8.220;2024-03-02T00:06:37;13.80;;;10.00;;
7657;SDS011;8462;53.156;8.220;2024-03-02T00:09:05;13.20;;;9.60;;
7657;SDS011;8462;53.156;8.220;2024-03-02T00:11:38;13.60;;;10.33;;
7657;SDS011;8462;53.156;8.220;2024-03-02T00:14:06;12.70;;;9.93;;
7657;SDS011;8462;53.156;8.220;2024-03-02T00:16:38;13.80;;;8.97;;
7657;SDS011;8462;53.156;8.220;2024-03-02T00:19:05;13.50;;;9.37;;
7657;SDS011;8462;53.156;8.220;2024-03-02T00:21:35;11.40;;;8.73;;
7657;SDS011;8462;53.156;8.220;2024-03-02T00:24:06;10.67;;;8.83;;
7657;SDS011;8462;53.156;8.220;2024-03-02T00:26:47;11.60;;;8.70;;
7657;SDS011;8462;53.156;8.220;2024-03-02T00:29:16;12.60;;;9.37;;
7657;SDS011;8462;53.156;8.220;2024-03-02T00:31:46;13.40;;;8.53;;
7657;SDS011;8462;53.156;8.220;2024-03-02T00:34:16;11.27;;;8.40;;
7657;SDS011;8462;53.156;8.220;2024-03-02T00:36:45;11.33;;;8.40;;
7657;SDS011;8462;53.156;8.220;2024-03-02T00:39:15;12.33;;;8.57;;
7657;SDS011;8462;53.156;8.220;2024-03-02T00:41:44;12.93;;;8.97;;
7657;SDS011;8462;53.156;8.220;2024-03-02T00:44:12;11.53;;;8.00;;
7657;SDS011;8462;53.156;8.220;2024-03-02T00:46:43;10.30;;;7.50;;
7657;SDS011;8462;53.156;8.220;2024-03-02T00:49:18;12.70;;;9.10;;
7657;SDS011;8462;53.156;8.220;2024-03-02T00:51:51;10.37;;;7.40;;
7657;SDS011;8462;53.156;8.220;2024-03-02T00:54:22;11.87;;;8.23;;
7657;SDS011;8462;53.156;8.220;2024-03-02T00:56:51;10.30;;;7.83;;
7657;SDS011;8462;53.156;8.220;2024-03-02T00:59:22;11.60;;;8.33;;
7657;SDS011;8462;53.156;8.220;2024-03-02T01:01:51;10.37;;;8.00;;
7657;SDS011;8462;53.156;8.220;2024-03-02T01:04:22;11.40;;;8.40;;
7657;SDS011;8462;53.156;8.220;2024-03-02T01:06:52;8.67;;;7.47;;
7657;SDS011;8462;53.156;8.220;2024-03-02T01:09:23;10.67;;;7.70;;
7657;SDS011;8462;53.156;8.220;2024-03-02T01:11:51;11.70;;;7.70;;
7657;SDS011;8462;53.156;8.220;2024-03-02T01:14:22;10.27;;;7.57;;
7657;SDS011;8462;53.156;8.220;2024-03-02T01:16:51;11.17;;;7.60;;
7657;SDS011;8462;53.156;8.220;2024-03-02T01:19:20;9.80;;;7.40;;
7657;SDS011;8462;53.156;8.220;2024-03-02T01:21:49;9.70;;;7.90;;
7657;SDS011;8462;53.156;8.220;2024-03-02T01:24:17;10.83;;;7.93;;
7657;SDS011;8462;53.156;8.220;2024-03-02T01:26:45;12.60;;;7.53;;
7657;SDS011;8462;53.156;8.220;2024-03-02T01:29:15;9.97;;;7.13;;
7657;SDS011;8462;53.156;8.220;2024-03-02T01:31:42;8.80;;;7.27;;
7657;SDS011;8462;53.156;8.220;2024-03-02T01:34:11;11.17;;;7.43;;
7657;SDS011;8462;53.156;8.220;2024-03-02T01:36:38;9.90;;;7.17;;
7657;SDS011;8462;53.156;8.220;2024-03-02T01:39:08;10.03;;;7.10;;
7657;SDS011;8462;53.156;8.220;2024-03-02T01:41:37;10.90;;;7.40;;
7657;SDS011;8462;53.156;8.220;2024-03-02T01:44:05;11.40;;;8.00;;
7657;SDS011;8462;53.156;8.220;2024-03-02T01:46:32;10.70;;;8.10;;
7657;SDS011;8462;53.156;8.220;2024-03-02T01:49:00;9.93;;;7.57;;
7657;SDS011;8462;53.156;8.220;2024-03-02T01:51:28;11.00;;;7.50;;
7657;SDS011;8462;53.156;8.220;2024-03-02T01:53:56;9.67;;;7.03;;
7657;SDS011;8462;53.156;8.220;2024-03-02T01:56:25;8.93;;;7.03;;
7657;SDS011;8462;53.156;8.220;2024-03-02T01:58:54;10.10;;;7.00;;
7657;SDS011;8462;53.156;8.220;2024-03-02T02:01:23;8.07;;;6.27;;
7657;SDS011;8462;53.156;8.220;2024-03-02T02:03:54;10.03;;;7.23;;
7657;SDS011;8462;53.156;8.220;2024-03-02T02:06:22;9.50;;;6.90;;
7657;SDS011;8462;53.156;8.220;2024-03-02T02:08:50;8.90;;;7.07;;
7657;SDS011;8462;53.156;8.220;2024-03-02T02:11:18;9.67;;;7.07;;
7657;SDS011;8462;53.156;8.220;2024-03-02T02:13:56;10.03;;;7.23;;
7657;SDS011;8462;53.156;8.220;2024-03-02T02:16:26;8.40;;;6.90;;
7657;SDS011;8462;53.156;8.220;2024-03-02T02:18:54;9.30;;;7.03;;
7657;SDS011;8462;53.156;8.220;2024-03-02T02:21:24;9.60;;;6.83;;
7657;SDS011;8462;53.156;8.220;2024-03-02T02:23:51;8.57;;;6.43;;
7657;SDS011;8462;53.156;8.220;2024-03-02T02:26:18;7.97;;;6.40;;
7657;SDS011;8462;53.156;8.220;2024-03-02T02:28:46;8.00;;;6.30;;
7657;SDS011;8462;53.156;8.220;2024-03-02T02:31:16;10.00;;;6.90;;
7657;SDS011;8462;53.156;8.220;2024-03-02T02:33:43;9.23;;;6.87;;
7657;SDS011;8462;53.156;8.220;2024-03-02T02:36:11;11.57;;;6.93;;
7657;SDS011;8462;53.156;8.220;2024-03-02T02:38:44;8.10;;;6.40;;
7657;SDS011;8462;53.156;8.220;2024-03-02T02:41:15;10.07;;;7.50;;
7657;SDS011;8462;53.156;8.220;2024-03-02T02:43:48;8.10;;;6.57;;
7657;SDS011;8462;53.156;8.220;2024-03-02T02:46:15;8.50;;;6.37;;
7657;SDS011;8462;53.156;8.220;2024-03-02T02:48:44;9.37;;;6.60;;
7657;SDS011;8462;53.156;8.220;2024-03-02T02:51:22;9.93;;;7.50;;
7657;SDS011;8462;53.156;8.220;2024-03-02T02:53:53;9.07;;;7.00;;
7657;SDS011;8462;53.156;8.220;2024-03-02T02:56:22;9.80;;;7.20;;
7657;SDS011;8462;53.156;8.220;2024-03-02T02:58:50;9.20;;;7.40;;
7657;SDS011;8462;53.156;8.220;2024-03-02T03:01:20;8.53;;;6.03;;
7657;SDS011;8462;53.156;8.220;2024-03-02T03:03:48;11.23;;;7.83;;
7657;SDS011;8462;53.156;8.220;2024-03-02T03:06:16;10.03;;;7.67;;
7657;SDS011;8462;53.156;8.220;2024-03-02T03:08:43;7.50;;;6.57;;
7657;SDS011;8462;53.156;8.220;2024-03-02T03:11:14;8.07;;;6.63;;
7657;SDS011;8462;53.156;8.220;2024-03-02T03:13:43;8.23;;;6.60;;
7657;SDS011;8462;53.156;8.220;2024-03-02T03:16:12;9.73;;;6.83;;
7657;SDS011;8462;53.156;8.220;2024-03-02T03:18:39;9.90;;;7.13;;
7657;SDS011;8462;53.156;8.220;2024-03-02T03:21:09;10.13;;;7.43;;
7657;SDS011;8462;53.156;8.220;2024-03-02T03:23:38;7.80;;;6.37;;
7657;SDS011;8462;53.156;8.220;2024-03-02T03:26:08;8.27;;;6.83;;
7657;SDS011;8462;53.156;8.220;2024-03-02T03:28:36;9.00;;;7.37;;
7657;SDS011;8462;53.156;8.220;2024-03-02T03:31:05;9.03;;;7.43;;
7657;SDS011;8462;53.156;8.220;2024-03-02T03:33:35;10.00;;;6.17;;
7657;SDS011;8462;53.156;8.220;2024-03-02T03:36:05;7.17;;;5.70;;
7657;SDS011;8462;53.156;8.220;2024-03-02T03:38:35;10.40;;;8.30;;
7657;SDS011;8462;53.156;8.220;2024-03-02T03:41:04;9.67;;;7.37;;
7657;SDS011;8462;53.156;8.220;2024-03-02T03:43:31;10.70;;;7.53;;
7657;SDS011;8462;53.156;8.220;2024-03-02T03:46:05;10.03;;;7.40;;
7657;SDS011;8462;53.156;8.220;2024-03-02T03:48:35;10.97;;;7.60;;
7657;SDS011;8462;53.156;8.220;2024-03-02T03:51:02;12.13;;;7.57;;
7657;SDS011;8462;53.156;8.220;2024-03-02T03:53:30;9.80;;;7.33;;
7657;SDS011;8462;53.156;8.220;2024-03-02T03:55:59;10.30;;;7.03;;
7657;SDS011;8462;53.156;8.220;2024-03-02T03:58:28;9.40;;;7.17;;
7657;SDS011;8462;53.156;8.220;2024-03-02T04:01:00;12.87;;;8.43;;
7657;SDS011;8462;53.156;8.220;2024-03-02T04:03:31;10.57;;;7.70;;
7657;SDS011;8462;53.156;8.220;2024-03-02T04:06:00;10.50;;;7.90;;
7657;SDS011;8462;53.156;8.220;2024-03-02T04:08:31;11.63;;;7.83;;
7657;SDS011;8462;53.156;8.220;2024-03-02T04:11:00;10.37;;;7.90;;
7657;SDS011;8462;53.156;8.220;2024-03-02T04:13:29;10.60;;;8.00;;
7657;SDS011;8462;53.156;8.220;2024-03-02T04:15:56;10.37;;;7.47;;
7657;SDS011;8462;53.156;8.220;2024-03-02T04:18:24;9.30;;;7.37;;
7657;SDS011;8462;53.156;8.220;2024-03-02T04:20:54;11.00;;;8.17;;
7657;SDS011;8462;53.156;8.220;2024-03-02T04:23:32;10.43;;;7.00;;
7657;SDS011;8462;53.156;8.220;2024-03-02T04:26:00;10.60;;;8.00;;
7657;SDS011;8462;53.156;8.220;2024-03-02T04:28:28;12.43;;;7.70;;
7657;SDS011;8462;53.156;8.220;2024-03-02T04:31:08;10.27;;;8.23;;
7657;SDS011;8462;53.156;8.220;2024-03-02T04:33:43;10.90;;;8.27;;
7657;SDS011;8462;53.156;8.220;2024-03-02T04:36:13;11.67;;;8.60;;
7657;SDS011;8462;53.156;8.220;2024-03-02T04:38:41;12.03;;;8.00;;
7657;SDS011;8462;53.156;8.220;2024-03-02T04:41:10;12.37;;;8.57;;
7657;SDS011;8462;53.156;8.220;2024-03-02T04:43:37;10.63;;;7.90;;
7657;SDS011;8462;53.156;8.220;2024-03-02T04:46:06;10.47;;;8.47;;
7657;SDS011;8462;53.156;8.220;2024-03-02T04:48:33;11.50;;;8.77;;
7657;SDS011;8462;53.156;8.220;2024-03-02T04:51:02;10.07;;;7.80;;
7657;SDS011;8462;53.156;8.220;2024-03-02T04:53:35;9.90;;;7.57;;
7657;SDS011;8462;53.156;8.220;2024-03-02T04:56:02;9.73;;;7.50;;
7657;SDS011;8462;53.156;8.220;2024-03-02T04:59:05;10.60;;;8.13;;
7657;SDS011;8462;53.156;8.220;2024-03-02T05:01:34;11.73;;;8.53;;
7657;SDS011;8462;53.156;8.220;2024-03-02T05:04:02;9.50;;;7.67;;
7657;SDS011;8462;53.156;8.220;2024-03-02T05:06:31;11.20;;;8.37;;
7657;SDS011;8462;53.156;8.220;2024-03-02T05:09:00;10.10;;;7.83;;
7657;SDS011;8462;53.156;8.220;2024-03-02T05:11:28;13.17;;;8.47;;
7657;SDS011;8462;53.156;8.220;2024-03-02T05:14:12;11.57;;;8.33;;
7657;SDS011;8462;53.156;8.220;2024-03-02T05:16:40;12.87;;;9.07;;
7657;SDS011;8462;53.156;8.220;2024-03-02T05:19:08;10.27;;;8.10;;
7657;SDS011;8462;53.156;8.220;2024-03-02T05:21:40;12.10;;;8.03;;
7657;SDS011;8462;53.156;8.220;2024-03-02T05:24:16;11.07;;;8.00;;
7657;SDS011;8462;53.156;8.220;2024-03-02T05:26:45;10.90;;;7.97;;
7657;SDS011;8462;53.156;8.220;2024-03-02T05:29:15;10.47;;;8.33;;
7657;SDS011;8462;53.156;8.220;2024-03-02T05:31:43;10.30;;;7.47;;
7657;SDS011;8462;53.156;8.220;2024-03-02T05:34:16;10.50;;;7.60;;
7657;SDS011;8462;53.156;8.220;2024-03-02T05:36:46;11.33;;;7.73;;
7657;SDS011;8462;53.156;8.220;2024-03-02T05:39:13;11.63;;;8.17;;
7657;SDS011;8462;53.156;8.220;2024-03-02T05:41:44;9.00;;;7.40;;
7657;SDS011;8462;53.156;8.220;2024-03-02T05:44:20;9.80;;;8.23;;
7657;SDS011;8462;53.156;8.220;2024-03-02T05:46:49;9.10;;;7.17;;
7657;SDS011;8462;53.156;8.220;2024-03-02T05:49:18;9.77;;;7.00;;
7657;SDS011;8462;53.156;8.220;2024-03-02T05:51:47;9.97;;;7.73;;
7657;SDS011;8462;53.156;8.220;2024-03-02T05:56:47;8.67;;;7.30;;
7657;SDS011;8462;53.156;8.220;2024-03-02T05:59:15;11.17;;;8.27;;
7657;SDS011;8462;53.156;8.220;2024-03-02T06:01:43;9.90;;;8.07;;
7657;SDS011;8462;53.156;8.220;2024-03-02T06:04:12;10.03;;;7.50;;
7657;SDS011;8462;53.156;8.220;2024-03-02T06:06:40;8.93;;;7.83;;
7657;SDS011;8462;53.156;8.220;2024-03-02T06:09:08;9.60;;;8.10;;
7657;SDS011;8462;53.156;8.220;2024-03-02T06:11:39;10.43;;;7.97;;
7657;SDS011;8462;53.156;8.220;2024-03-02T06:14:10;10.17;;;7.90;;
7657;SDS011;8462;53.156;8.220;2024-03-02T06:16:40;9.00;;;7.43;;
7657;SDS011;8462;53.156;8.220;2024-03-02T06:19:08;9.63;;;7.20;;
7657;SDS011;8462;53.156;8.220;2024-03-02T06:21:41;10.03;;;7.70;;
7657;SDS011;8462;53.156;8.220;2024-03-02T06:24:15;11.40;;;8.80;;
7657;SDS011;8462;53.156;8.220;2024-03-02T06:26:43;9.13;;;8.07;;
7657;SDS011;8462;53.156;8.220;2024-03-02T06:29:12;9.60;;;7.67;;
7657;SDS011;8462;53.156;8.220;2024-03-02T06:31:42;9.67;;;8.53;;
7657;SDS011;8462;53.156;8.220;2024-03-02T06:34:13;25.73;;;17.90;;
7657;SDS011;8462;53.156;8.220;2024-03-02T06:36:41;10.87;;;8.70;;
7657;SDS011;8462;53.156;8.220;2024-03-02T06:39:08;10.70;;;8.40;;
7657;SDS011;8462;53.156;8.220;2024-03-02T06:41:38;10.47;;;7.97;;
7657;SDS011;8462;53.156;8.220;2024-03-02T06:44:13;9.40;;;7.57;;
7657;SDS011;8462;53.156;8.220;2024-03-02T06:46:45;10.27;;;8.43;;
7657;SDS011;8462;53.156;8.220;2024-03-02T06:49:13;10.43;;;7.80;;
7657;SDS011;8462;53.156;8.220;2024-03-02T06:51:46;11.53;;;8.47;;
7657;SDS011;8462;53.156;8.220;2024-03-02T06:54:13;9.77;;;7.93;;
7657;SDS011;8462;53.156;8.220;2024-03-02T06:56:42;10.87;;;8.57;;
7657;SDS011;8462;53.156;8.220;2024-03-02T06:59:16;9.50;;;7.70;;
7657;SDS011;8462;53.156;8.220;2024-03-02T07:01:43;11.70;;;8.17;;
7657;SDS011;8462;53.156;8.220;2024-03-02T07:04:13;9.87;;;8.37;;
7657;SDS011;8462;53.156;8.220;2024-03-02T07:06:40;11.20;;;8.73;;
7657;SDS011;8462;53.156;8.220;2024-03-02T07:09:08;12.10;;;8.37;;
7657;SDS011;8462;53.156;8.220;2024-03-02T07:11:38;11.63;;;8.40;;
7657;SDS011;8462;53.156;8.220;2024-03-02T07:14:05;9.87;;;7.83;;
7657;SDS011;8462;53.156;8.220;2024-03-02T07:16:38;10.17;;;8.73;;
7657;SDS011;8462;53.156;8.220;2024-03-02T07:19:11;13.90;;;9.27;;
7657;SDS011;8462;53.156;8.220;2024-03-02T07:21:40;11.60;;;8.97;;
7657;SDS011;8462;53.156;8.220;2024-03-02T07:24:07;12.97;;;9.87;;
7657;SDS011;8462;53.156;8.220;2024-03-02T07:26:39;12.40;;;9.90;;
7657;SDS011;8462;53.156;8.220;2024-03-02T07:29:09;11.23;;;9.13;;
7657;SDS011;8462;53.156;8.220;2024-03-02T07:31:39;13.63;;;10.10;;
7657;SDS011;8462;53.156;8.220;2024-03-02T07:37:00;15.40;;;10.80;;
7657;SDS011;8462;53.156;8.220;2024-03-02T07:39:29;11.17;;;9.50;;
7657;SDS011;8462;53.156;8.220;2024-03-02T07:41:57;13.93;;;10.87;;
7657;SDS011;8462;53.156;8.220;2024-03-02T07:44:27;13.40;;;10.47;;
7657;SDS011;8462;53.156;8.220;2024-03-02T07:46:55;11.53;;;9.17;;
7657;SDS011;8462;53.156;8.220;2024-03-02T07:49:23;12.37;;;9.73;;
7657;SDS011;8462;53.156;8.220;2024-03-02T07:51:51;12.70;;;9.40;;
7657;SDS011;8462;53.156;8.220;2024-03-02T07:54:19;11.43;;;9.70;;
7657;SDS011;8462;53.156;8.220;2024-03-02T07:56:46;12.63;;;9.80;;
7657;SDS011;8462;53.156;8.220;2024-03-02T07:59:17;13.70;;;9.87;;
7657;SDS011;8462;53.156;8.220;2024-03-02T08:01:48;11.80;;;9.03;;
7657;SDS011;8462;53.156;8.220;2024-03-02T08:04:18;13.23;;;9.47;;
7657;SDS011;8462;53.156;8.220;2024-03-02T08:06:45;12.10;;;9.50;;
7657;SDS011;8462;53.156;8.220;2024-03-02T08:09:15;13.00;;;10.17;;
7657;SDS011;8462;53.156;8.220;2024-03-02T08:11:48;13.93;;;11.13;;
7657;SDS011;8462;53.156;8.220;2024-03-02T08:14:18;13.37;;;11.40;;
7657;SDS011;8462;53.156;8.220;2024-03-02T08:16:46;11.73;;;9.57;;
7657;SDS011;8462;53.156;8.220;2024-03-02T08:19:14;12.60;;;9.80;;
7657;SDS011;8462;53.156;8.220;2024-03-02T08:21:46;13.20;;;10.07;;
7657;SDS011;8462;53.156;8.220;2024-03-02T08:24:14;12.43;;;9.70;;
7657;SDS011;8462;53.156;8.220;2024-03-02T08:26:42;11.77;;;9.97;;
7657;SDS011;8462;53.156;8.220;2024-03-02T08:29:13;13.07;;;9.40;;
7657;SDS011;8462;53.156;8.220;2024-03-02T08:31:40;10.73;;;9.17;;
7657;SDS011;8462;53.156;8.220;2024-03-02T08:34:07;11.00;;;9.53;;
7657;SDS011;8462;53.156;8.220;2024-03-02T08:36:34;10.30;;;8.60;;
7657;SDS011;8462;53.156;8.220;2024-03-02T08:39:07;10.60;;;9.40;;
7657;SDS011;8462;53.156;8.220;2024-03-02T08:41:40;10.57;;;8.40;;
7657;SDS011;8462;53.156;8.220;2024-03-02T08:44:15;9.70;;;8.70;;
7657;SDS011;8462;53.156;8.220;2024-03-02T08:46:42;11.37;;;8.63;;
7657;SDS011;8462;53.156;8.220;2024-03-02T08:49:11;11.13;;;9.47;;
7657;SDS011;8462;53.156;8.220;2024-03-02T08:51:39;9.70;;;8.67;;
7657;SDS011;8462;53.156;8.220;2024-03-02T08:54:08;10.93;;;8.83;;
7657;SDS011;8462;53.156;8.220;2024-03-02T08:56:38;10.13;;;8.57;;
7657;SDS011;8462;53.156;8.220;2024-03-02T08:59:09;11.73;;;9.43;;
7657;SDS011;8462;53.156;8.220;2024-03-02T09:01:37;10.47;;;8.37;;
7657;SDS011;8462;53.156;8.220;2024-03-02T09:04:07;9.33;;;8.33;;
7657;SDS011;8462;53.156;8.220;2024-03-02T09:06:35;10.03;;;8.57;;
7657;SDS011;8462;53.156;8.220;2024-03-02T09:09:05;8.90;;;7.43;;
7657;SDS011;8462;53.156;8.220;2024-03-02T09:11:35;8.47;;;7.17;;
7657;SDS011;8462;53.156;8.220;2024-03-02T09:14:03;10.47;;;7.30;;
7657;SDS011;8462;53.156;8.220;2024-03-02T09:16:32;9.23;;;7.53;;
7657;SDS011;8462;53.156;8.220;2024-03-02T09:19:03;10.13;;;7.70;;
7657;SDS011;8462;53.156;8.220;2024-03-02T09:21:30;8.63;;;7.10;;
7657;SDS011;8462;53.156;8.220;2024-03-02T09:23:58;9.67;;;8.67;;
7657;SDS011;8462;53.156;8.220;2024-03-02T09:26:28;10.07;;;6.97;;
7657;SDS011;8462;53.156;8.220;2024-03-02T09:28:57;8.37;;;6.50;;
7657;SDS011;8462;53.156;8.220;2024-03-02T09:31:26;9.87;;;7.23;;
7657;SDS011;8462;53.156;8.220;2024-03-02T09:33:55;8.20;;;6.40;;
7657;SDS011;8462;53.156;8.220;2024-03-02T09:36:23;7.63;;;6.77;;
7657;SDS011;8462;53.156;8.220;2024-03-02T09:38:51;8.50;;;6.57;;
7657;SDS011;8462;53.156;8.220;2024-03-02T09:41:20;8.93;;;6.90;;
7657;SDS011;8462;53.156;8.220;2024-03-02T09:43:49;8.60;;;7.13;;
7657;SDS011;8462;53.156;8.220;2024-03-02T09:46:18;8.43;;;6.30;;
7657;SDS011;8462;53.156;8.220;2024-03-02T09:48:46;9.33;;;6.77;;
7657;SDS011;8462;53.156;8.220;2024-03-02T09:51:15;7.53;;;6.20;;
7657;SDS011;8462;53.156;8.220;2024-03-02T09:53:50;7.43;;;5.80;;
7657;SDS011;8462;53.156;8.220;2024-03-02T09:56:20;8.37;;;5.43;;
7657;SDS011;8462;53.156;8.220;2024-03-02T09:58:49;6.33;;;5.67;;
7657;SDS011;8462;53.156;8.220;2024-03-02T10:01:19;7.80;;;5.73;;
7657;SDS011;8462;53.156;8.220;2024-03-02T10:03:48;8.17;;;6.40;;
7657;SDS011;8462;53.156;8.220;2024-03-02T10:06:20;7.00;;;6.10;;
7657;SDS011;8462;53.156;8.220;2024-03-02T10:08:51;6.30;;;4.80;;
7657;SDS011;8462;53.156;8.220;2024-03-02T10:11:27;6.53;;;5.53;;
7657;SDS011;8462;53.156;8.220;2024-03-02T10:14:07;6.60;;;5.00;;
7657;SDS011;8462;53.156;8.220;2024-03-02T10:16:38;5.90;;;4.43;;
7657;SDS011;8462;53.156;8.220;2024-03-02T10:19:16;6.00;;;5.03;;
7657;SDS011;8462;53.156;8.220;2024-03-02T10:21:46;6.47;;;4.07;;
7657;SDS011;8462;53.156;8.220;2024-03-02T10:24:17;6.80;;;5.00;;
7657;SDS011;8462;53.156;8.220;2024-03-02T10:26:48;5.43;;;4.47;;
7657;SDS011;8462;53.156;8.220;2024-03-02T10:29:17;8.17;;;6.70;;
7657;SDS011;8462;53.156;8.220;2024-03-02T10:31:47;4.43;;;3.93;;
7657;SDS011;8462;53.156;8.220;2024-03-02T10:34:15;4.83;;;4.10;;
7657;SDS011;8462;53.156;8.220;2024-03-02T10:36:43;5.27;;;4.40;;
7657;SDS011;8462;53.156;8.220;2024-03-02T10:39:18;5.70;;;4.37;;
7657;SDS011;8462;53.156;8.220;2024-03-02T10:41:47;5.40;;;4.10;;
7657;SDS011;8462;53.156;8.220;2024-03-02T10:44:18;4.77;;;4.13;;
7657;SDS011;8462;53.156;8.220;2024-03-02T10:46:49;5.23;;;4.37;;
7657;SDS011;8462;53.156;8.220;2024-03-02T10:49:20;7.57;;;3.57;;
7657;SDS011;8462;53.156;8.220;2024-03-02T10:51:55;3.23;;;2.93;;
7657;SDS011;8462;53.156;8.220;2024-03-02T10:54:23;5.47;;;4.07;;
7657;SDS011;8462;53.156;8.220;2024-03-02T10:56:55;3.90;;;3.50;;
7657;SDS011;8462;53.156;8.220;2024-03-02T10:59:27;4.97;;;3.90;;
7657;SDS011;8462;53.156;8.220;2024-03-02T11:01:58;7.07;;;4.13;;
7657;SDS011;8462;53.156;8.220;2024-03-02T11:04:27;5.17;;;3.90;;
7657;SDS011;8462;53.156;8.220;2024-03-02T11:06:58;8.53;;;4.30;;
7657;SDS011;8462;53.156;8.220;2024-03-02T11:09:33;6.03;;;3.70;;
7657;SDS011;8462;53.156;8.220;2024-03-02T11:12:02;4.27;;;3.23;;
7657;SDS011;8462;53.156;8.220;2024-03-02T11:14:49;5.03;;;4.03;;
7657;SDS011;8462;53.156;8.220;2024-03-02T11:17:25;4.73;;;4.00;;
7657;SDS011;8462;53.156;8.220;2024-03-02T11:19:53;6.60;;;4.53;;
7657;SDS011;8462;53.156;8.220;2024-03-02T11:22:23;5.00;;;4.00;;
7657;SDS011;8462;53.156;8.220;2024-03-02T11:24:52;6.17;;;3.70;;
7657;SDS011;8462;53.156;8.220;2024-03-02T11:33:24;4.87;;;3.50;;
7657;SDS011;8462;53.156;8.220;2024-03-02T11:35:58;5.23;;;3.10;;
7657;SDS011;8462;53.156;8.220;2024-03-02T11:38:32;13.30;;;9.50;;
7657;SDS011;8462;53.156;8.220;2024-03-02T11:41:05;4.83;;;4.10;;
7657;SDS011;8462;53.156;8.220;2024-03-02T11:43:36;6.63;;;4.07;;
7657;SDS011;8462;53.156;8.220;2024-03-02T11:48:41;7.20;;;4.33;;
7657;SDS011;8462;53.156;8.220;2024-03-02T11:51:09;4.77;;;4.10;;
7657;SDS011;8462;53.156;8.220;2024-03-02T11:53:39;6.73;;;4.07;;
7657;SDS011;8462;53.156;8.220;2024-03-02T11:56:09;5.57;;;4.10;;
7657;SDS011;8462;53.156;8.220;2024-03-02T11:58:39;7.27;;;4.43;;
7657;SDS011;8462;53.156;8.220;2024-03-02T12:01:08;6.20;;;4.53;;
7657;SDS011;8462;53.156;8.220;2024-03-02T12:03:38;5.23;;;4.60;;
7657;SDS011;8462;53.156;8.220;2024-03-02T12:06:07;6.57;;;4.87;;
7657;SDS011;8462;53.156;8.220;2024-03-02T12:08:40;7.60;;;5.27;;
7657;SDS011;8462;53.156;8.220;2024-03-02T12:11:12;5.87;;;4.60;;
7657;SDS011;8462;53.156;8.220;2024-03-02T12:13:52;6.13;;;4.37;;
7657;SDS011;8462;53.156;8.220;2024-03-02T12:16:23;5.17;;;4.47;;
7657;SDS011;8462;53.156;8.220;2024-03-02T12:18:51;4.63;;;4.17;;
7657;SDS011;8462;53.156;8.220;2024-03-02T12:21:23;5.03;;;4.53;;
7657;SDS011;8462;53.156;8.220;2024-03-02T12:23:51;4.83;;;4.27;;
7657;SDS011;8462;53.156;8.220;2024-03-02T12:26:20;5.73;;;4.63;;
7657;SDS011;8462;53.156;8.220;2024-03-02T12:28:50;4.73;;;4.00;;
7657;SDS011;8462;53.156;8.220;2024-03-02T12:31:18;6.90;;;4.50;;
7657;SDS011;8462;53.156;8.220;2024-03-02T12:33:46;6.93;;;5.03;;
7657;SDS011;8462;53.156;8.220;2024-03-02T12:36:13;5.33;;;4.60;;
7657;SDS011;8462;53.156;8.220;2024-03-02T12:38:44;5.30;;;4.40;;
7657;SDS011;8462;53.156;8.220;2024-03-02T12:41:14;5.13;;;4.20;;
7657;SDS011;8462;53.156;8.220;2024-03-02T12:43:42;5.13;;;4.40;;
7657;SDS011;8462;53.156;8.220;2024-03-02T12:46:10;5.10;;;4.43;;
7657;SDS011;8462;53.156;8.220;2024-03-02T12:48:40;5.43;;;4.27;;
7657;SDS011;8462;53.156;8.220;2024-03-02T12:51:17;6.00;;;4.57;;
7657;SDS011;8462;53.156;8.220;2024-03-02T12:53:46;5.00;;;3.70;;
7657;SDS011;8462;53.156;8.220;2024-03-02T12:56:20;5.90;;;4.20;;
7657;SDS011;8462;53.156;8.220;2024-03-02T12:58:54;5.47;;;4.13;;
7657;SDS011;8462;53.156;8.220;2024-03-02T13:01:22;4.80;;;3.67;;
7657;SDS011;8462;53.156;8.220;2024-03-02T13:03:52;5.67;;;3.67;;
7657;SDS011;8462;53.156;8.220;2024-03-02T13:06:21;4.67;;;3.73;;
7657;SDS011;8462;53.156;8.220;2024-03-02T13:08:51;6.40;;;4.33;;
7657;SDS011;8462;53.156;8.220;2024-03-02T13:11:22;6.30;;;4.63;;
7657;SDS011;8462;53.156;8.220;2024-03-02T13:13:52;4.83;;;4.20;;
7657;SDS011;8462;53.156;8.220;2024-03-02T13:16:21;5.13;;;3.90;;
7657;SDS011;8462;53.156;8.220;2024-03-02T13:18:49;5.37;;;4.07;;
7657;SDS011;8462;53.156;8.220;2024-03-02T13:21:20;3.87;;;3.20;;
7657;SDS011;8462;53.156;8.220;2024-03-02T13:23:51;4.10;;;3.37;;
7657;SDS011;8462;53.156;8.220;2024-03-02T13:26:18;5.00;;;3.90;;
7657;SDS011;8462;53.156;8.220;2024-03-02T13:28:48;4.07;;;3.67;;
7657;SDS011;8462;53.156;8.220;2024-03-02T13:31:16;4.13;;;3.13;;
7657;SDS011;8462;53.156;8.220;2024-03-02T13:33:45;4.17;;;3.20;;
7657;SDS011;8462;53.156;8.220;2024-03-02T13:36:14;4.20;;;3.37;;
7657;SDS011;8462;53.156;8.220;2024-03-02T13:38:42;4.17;;;3.53;;
7657;SDS011;8462;53.156;8.220;2024-03-02T13:41:12;7.03;;;4.10;;
7657;SDS011;8462;53.156;8.220;2024-03-02T13:43:41;4.40;;;4.00;;
7657;SDS011;8462;53.156;8.220;2024-03-02T13:46:10;4.67;;;4.13;;
7657;SDS011;8462;53.156;8.220;2024-03-02T13:48:37;5.30;;;4.80;;
7657;SDS011;8462;53.156;8.220;2024-03-02T13:51:05;6.40;;;5.30;;
7657;SDS011;8462;53.156;8.220;2024-03-02T13:53:34;10.40;;;3.63;;
7657;SDS011;8462;53.156;8.220;2024-03-02T13:56:04;6.83;;;5.93;;
7657;SDS011;8462;53.156;8.220;2024-03-02T13:58:34;5.33;;;4.43;;
7657;SDS011;8462;53.156;8.220;2024-03-02T14:01:02;4.93;;;4.17;;
7657;SDS011;8462;53.156;8.220;2024-03-02T14:03:32;7.20;;;5.17;;
7657;SDS011;8462;53.156;8.220;2024-03-02T14:06:02;5.10;;;4.13;;
7657;SDS011;8462;53.156;8.220;2024-03-02T14:08:30;7.30;;;6.50;;
7657;SDS011;8462;53.156;8.220;2024-03-02T14:11:02;4.97;;;4.47;;
7657;SDS011;8462;53.156;8.220;2024-03-02T14:13:30;4.80;;;3.90;;
7657;SDS011;8462;53.156;8.220;2024-03-02T14:16:00;5.57;;;4.67;;
7657;SDS011;8462;53.156;8.220;2024-03-02T14:18:28;4.77;;;4.30;;
7657;SDS011;8462;53.156;8.220;2024-03-02T14:20:59;5.87;;;4.43;;
7657;SDS011;8462;53.156;8.220;2024-03-02T14:23:27;4.20;;;3.70;;
7657;SDS011;8462;53.156;8.220;2024-03-02T14:25:57;6.20;;;4.93;;
7657;SDS011;8462;53.156;8.220;2024-03-02T14:28:25;4.73;;;4.00;;
7657;SDS011;8462;53.156;8.220;2024-03-02T14:30:54;5.67;;;5.03;;
7657;SDS011;8462;53.156;8.220;2024-03-02T14:33:22;6.83;;;4.80;;
7657;SDS011;8462;53.156;8.220;2024-03-02T14:35:50;5.27;;;4.33;;
7657;SDS011;8462;53.156;8.220;2024-03-02T14:38:18;5.90;;;4.87;;
7657;SDS011;8462;53.156;8.220;2024-03-02T14:40:48;8.53;;;5.50;;
7657;SDS011;8462;53.156;8.220;2024-03-02T14:43:15;6.60;;;5.10;;
7657;SDS011;8462;53.156;8.220;2024-03-02T14:45:43;7.60;;;5.20;;
7657;SDS011;8462;53.156;8.220;2024-03-02T14:48:11;7.13;;;5.60;;
7657;SDS011;8462;53.156;8.220;2024-03-02T14:50:42;5.93;;;4.93;;
7657;SDS011;8462;53.156;8.220;2024-03-02T14:53:10;6.93;;;5.17;;
7657;SDS011;8462;53.156;8.220;2024-03-02T14:55:38;7.10;;;5.10;;
7657;SDS011;8462;53.156;8.220;2024-03-02T14:58:07;5.87;;;5.27;;
7657;SDS011;8462;53.156;8.220;2024-03-02T15:00:37;6.07;;;4.87;;
7657;SDS011;8462;53.156;8.220;2024-03-02T15:03:04;6.80;;;5.57;;
7657;SDS011;8462;53.156;8.220;2024-03-02T15:05:37;6.23;;;5.50;;
7657;SDS011;8462;53.156;8.220;2024-03-02T15:08:09;7.57;;;5.27;;
7657;SDS011;8462;53.156;8.220;2024-03-02T15:10:38;7.27;;;5.47;;
7657;SDS011;8462;53.156;8.220;2024-03-02T15:13:07;6.40;;;5.13;;
7657;SDS011;8462;53.156;8.220;2024-03-02T15:15:35;7.03;;;5.40;;
7657;SDS011;8462;53.156;8.220;2024-03-02T15:18:03;5.37;;;4.53;;
7657;SDS011;8462;53.156;8.220;2024-03-02T15:20:32;5.73;;;4.00;;
7657;SDS011;8462;53.156;8.220;2024-03-02T15:23:00;5.47;;;4.60;;
7657;SDS011;8462;53.156;8.220;2024-03-02T15:25:31;6.77;;;5.20;;
7657;SDS011;8462;53.156;8.220;2024-03-02T15:27:59;4.87;;;4.37;;
7657;SDS011;8462;53.156;8.220;2024-03-02T15:30:28;7.20;;;5.10;;
7657;SDS011;8462;53.156;8.220;2024-03-02T15:32:58;4.90;;;4.17;;
7657;SDS011;8462;53.156;8.220;2024-03-02T15:35:30;5.27;;;4.37;;
7657;SDS011;8462;53.156;8.220;2024-03-02T15:37:59;6.23;;;4.73;;
7657;SDS011;8462;53.156;8.220;2024-03-02T15:40:32;5.60;;;4.90;;